Time;durP1;ratioP1;P1;durP2;ratioP2;P2;SDS_P1;SDS_P2;PMS_P1;PMS_P2;Temp;Humidity;BMP_temperature;BMP_pressure;BME280_temperature;BME280_humidity;BME280_pressure;Samples;Min_cycle;Max_cycle;Signal;HPM_P1;HPM_P2
2023/04/14 00:01:39;;;;;;;12.20;6.90;;;;;;;3.96;88.11;100208.95;105995;1254;62039;-69
2023/04/14 00:04:06;;;;;;;13.70;6.80;;;;;;;3.92;88.08;100209.48;105852;1258;62093;-69
2023/04/14 00:06:33;;;;;;;10.20;7.00;;;;;;;3.88;88.23;100211.66;105824;1258;69976;-70
2023/04/14 00:08:59;;;;;;;10.70;7.50;;;;;;;3.84;88.53;100212.70;106046;1257;62558;-70
2023/04/14 00:11:26;;;;;;;13.10;7.40;;;;;;;3.81;88.90;100218.59;106452;1254;61939;-70
2023/04/14 00:13:55;;;;;;;11.30;7.40;;;;;;;3.78;89.12;100223.09;105798;1259;62643;-74
2023/04/14 00:16:22;;;;;;;12.20;7.20;;;;;;;3.74;88.97;100222.73;106257;1254;76432;-70
2023/04/14 00:18:48;;;;;;;11.90;7.00;;;;;;;3.71;88.92;100223.39;106321;1257;70933;-70
2023/04/14 00:21:15;;;;;;;15.70;7.70;;;;;;;3.67;89.08;100229.97;105549;1259;62682;-70
2023/04/14 00:23:42;;;;;;;10.30;7.20;;;;;;;3.64;89.04;100238.10;105744;1254;62636;-71
2023/04/14 00:26:09;;;;;;;11.70;7.00;;;;;;;3.62;89.29;100236.98;105586;1260;62056;-69
2023/04/14 00:28:35;;;;;;;12.00;7.40;;;;;;;3.57;89.52;100239.33;105577;1259;75841;-72
2023/04/14 00:31:02;;;;;;;10.10;7.30;;;;;;;3.50;89.40;100234.55;106133;1260;62511;-69
2023/04/14 00:33:28;;;;;;;11.80;7.40;;;;;;;3.46;89.69;100237.73;106049;1258;71502;-70
2023/04/14 00:35:56;;;;;;;11.80;7.10;;;;;;;3.42;89.80;100240.17;106397;1258;62152;-70
2023/04/14 00:38:22;;;;;;;11.00;7.60;;;;;;;3.38;89.55;100240.50;105825;1255;62052;-71
2023/04/14 00:40:49;;;;;;;9.80;6.90;;;;;;;3.35;90.08;100243.44;105834;1256;74338;-68
2023/04/14 00:43:18;;;;;;;13.20;7.40;;;;;;;3.31;89.93;100242.42;106710;1255;62539;-69
2023/04/14 00:45:47;;;;;;;13.50;8.70;;;;;;;3.29;90.05;100244.75;107909;1257;72321;-73
2023/04/14 00:48:14;;;;;;;13.80;8.10;;;;;;;3.26;90.18;100244.05;106000;1258;63387;-71
2023/04/14 00:50:42;;;;;;;11.10;7.80;;;;;;;3.23;90.20;100245.48;107894;1256;62165;-69
2023/04/14 00:53:11;;;;;;;11.50;7.70;;;;;;;3.21;90.38;100245.52;106247;1257;74411;-69
2023/04/14 00:55:39;;;;;;;13.20;7.60;;;;;;;3.20;90.46;100250.38;105754;1256;71556;-71
2023/04/14 00:58:06;;;;;;;12.30;7.60;;;;;;;3.18;90.37;100252.61;105867;1258;72583;-70
2023/04/14 01:00:36;;;;;;;12.00;8.10;;;;;;;3.16;90.21;100254.27;105743;1257;62525;-69
2023/04/14 01:03:03;;;;;;;15.70;8.00;;;;;;;3.12;90.23;100257.04;105942;1259;62482;-69
2023/04/14 01:05:31;;;;;;;12.60;7.80;;;;;;;3.09;90.63;100256.08;105864;1260;74481;-69
2023/04/14 01:07:57;;;;;;;11.30;7.60;;;;;;;3.07;90.94;100257.85;106541;1260;69700;-69
2023/04/14 01:10:29;;;;;;;11.00;7.40;;;;;;;3.03;90.66;100254.67;105806;1259;71394;-69
2023/04/14 01:13:09;;;;;;;10.80;7.20;;;;;;;2.99;90.89;100250.48;106752;1255;62164;-69
2023/04/14 01:15:51;;;;;;;10.90;7.60;;;;;;;2.95;90.87;100249.95;105791;1257;62167;-71
2023/04/14 01:18:37;;;;;;;11.10;7.70;;;;;;;2.92;90.90;100250.94;105579;1257;75594;-68
2023/04/14 01:21:16;;;;;;;11.80;8.20;;;;;;;2.89;91.16;100248.79;105671;1255;69059;-72
2023/04/14 01:24:15;;;;;;;13.00;7.90;;;;;;;2.86;91.14;100243.11;105827;1255;72227;-70
2023/04/14 01:26:43;;;;;;;12.40;8.50;;;;;;;2.83;91.66;100239.51;107010;1254;62051;-70
2023/04/14 01:29:34;;;;;;;12.00;8.10;;;;;;;2.81;91.53;100240.74;107902;1253;60009;-70
2023/04/14 01:32:06;;;;;;;13.10;8.20;;;;;;;2.79;91.60;100239.01;106749;1254;73029;-69
2023/04/14 01:34:42;;;;;;;11.10;7.30;;;;;;;2.77;91.75;100239.34;106868;1255;70025;-69
2023/04/14 01:37:16;;;;;;;12.50;7.70;;;;;;;2.75;91.66;100237.55;106974;1257;72999;-69
2023/04/14 01:39:51;;;;;;;13.00;7.80;;;;;;;2.74;91.59;100238.70;106033;1254;63471;-68
2023/04/14 01:42:23;;;;;;;12.40;7.90;;;;;;;2.72;91.70;100240.10;107555;1255;59995;-69
2023/04/14 01:44:55;;;;;;;14.10;7.80;;;;;;;2.71;91.81;100245.31;106263;1261;74125;-69
2023/04/14 01:47:25;;;;;;;11.90;8.30;;;;;;;2.69;92.15;100247.54;106807;1254;71010;-69
2023/04/14 01:49:54;;;;;;;15.10;7.90;;;;;;;2.69;92.56;100247.40;107321;1257;71602;-69
2023/04/14 01:52:22;;;;;;;11.70;7.80;;;;;;;2.68;92.43;100249.75;106796;1254;62604;-69
2023/04/14 01:54:53;;;;;;;12.00;7.80;;;;;;;2.67;92.82;100249.33;106399;1254;63315;-69
2023/04/14 01:57:21;;;;;;;13.50;7.90;;;;;;;2.65;92.55;100248.93;106687;1253;74358;-68
2023/04/14 01:59:52;;;;;;;11.80;8.20;;;;;;;2.64;93.02;100246.09;107344;1253;71828;-68
2023/04/14 02:02:22;;;;;;;13.90;8.70;;;;;;;2.63;93.04;100251.93;106399;1258;71112;-70
2023/04/14 02:04:50;;;;;;;12.90;7.80;;;;;;;2.62;93.42;100253.73;107029;1254;61943;-70
2023/04/14 02:07:20;;;;;;;13.70;8.20;;;;;;;2.61;93.03;100255.73;106707;1256;62033;-69
2023/04/14 02:09:49;;;;;;;15.60;8.80;;;;;;;2.61;93.29;100257.31;106031;1257;75558;-69
2023/04/14 02:12:22;;;;;;;14.10;8.50;;;;;;;2.60;93.15;100257.25;106365;1254;69653;-68
2023/04/14 02:14:51;;;;;;;12.90;7.90;;;;;;;2.59;93.33;100258.54;107073;1254;71589;-69
2023/04/14 02:17:20;;;;;;;15.10;8.10;;;;;;;2.56;93.18;100257.96;106958;1254;62890;-70
2023/04/14 02:19:48;;;;;;;14.30;8.20;;;;;;;2.52;92.87;100261.80;107586;1253;62085;-68
2023/04/14 02:22:15;;;;;;;12.80;8.20;;;;;;;2.50;92.99;100266.48;106355;1254;74059;-72
2023/04/14 02:24:42;;;;;;;13.30;7.50;;;;;;;2.48;93.05;100265.13;107137;1254;69619;-69
2023/04/14 02:27:36;;;;;;;13.10;8.00;;;;;;;2.46;93.13;100264.76;107072;1254;72923;-69
2023/04/14 02:30:18;;;;;;;15.30;8.50;;;;;;;2.44;93.31;100269.05;107119;1254;59993;-68
2023/04/14 02:32:51;;;;;;;16.20;9.70;;;;;;;2.43;93.23;100267.98;106674;1254;62035;-68
2023/04/14 02:35:25;;;;;;;14.60;9.20;;;;;;;2.41;93.55;100265.98;107053;1257;74346;-70
2023/04/14 02:38:04;;;;;;;12.60;8.40;;;;;;;2.40;93.52;100266.46;105910;1260;71236;-69
2023/04/14 02:40:36;;;;;;;12.70;8.40;;;;;;;2.38;93.48;100268.70;105924;1254;71223;-68
2023/04/14 02:43:30;;;;;;;12.60;8.60;;;;;;;2.36;93.58;100271.73;106772;1254;62261;-70
2023/04/14 02:46:01;;;;;;;14.70;8.60;;;;;;;2.30;93.46;100273.27;105918;1254;62527;-71
2023/04/14 02:48:31;;;;;;;12.40;8.50;;;;;;;2.23;93.43;100274.36;105652;1254;75551;-70
2023/04/14 02:50:59;;;;;;;16.30;9.20;;;;;;;2.18;93.61;100275.33;106026;1254;71267;-71
2023/04/14 02:53:26;;;;;;;13.60;8.80;;;;;;;2.15;93.92;100271.40;106423;1260;72567;-71
2023/04/14 02:55:53;;;;;;;15.50;9.30;;;;;;;2.13;93.67;100269.33;105866;1259;63335;-70
2023/04/14 02:58:20;;;;;;;18.50;10.20;;;;;;;2.10;93.84;100269.77;106061;1256;62065;-68
2023/04/14 03:00:48;;;;;;;15.30;10.00;;;;;;;2.06;94.03;100272.04;106363;1254;74294;-68
2023/04/14 03:03:16;;;;;;;14.10;9.50;;;;;;;2.03;94.11;100270.81;105656;1263;71705;-72
2023/04/14 03:05:45;;;;;;;14.50;9.20;;;;;;;2.01;94.33;100272.95;105961;1255;72817;-70
2023/04/14 03:08:14;;;;;;;13.80;9.80;;;;;;;1.98;94.02;100269.90;105834;1258;61970;-72
2023/04/14 03:10:45;;;;;;;16.70;10.20;;;;;;;1.93;94.16;100269.25;106433;1254;62136;-70
2023/04/14 03:13:13;;;;;;;15.30;9.20;;;;;;;1.90;94.27;100263.23;105625;1256;75413;-69
2023/04/14 03:15:41;;;;;;;15.70;9.70;;;;;;;1.88;94.47;100267.22;106611;1254;72546;-69
2023/04/14 03:18:09;;;;;;;17.10;10.40;;;;;;;1.85;94.67;100279.88;106008;1254;71470;-71
2023/04/14 03:20:37;;;;;;;20.30;10.00;;;;;;;1.84;94.92;100276.66;105924;1254;62143;-69
2023/04/14 03:23:06;;;;;;;17.90;10.90;;;;;;;1.82;95.52;100280.34;105758;1254;62510;-70
2023/04/14 03:25:36;;;;;;;19.20;11.00;;;;;;;1.79;95.71;100277.90;106091;1257;75545;-68
2023/04/14 03:28:08;;;;;;;20.00;9.50;;;;;;;1.76;95.46;100276.94;106344;1254;69948;-70
2023/04/14 03:30:39;;;;;;;19.50;10.30;;;;;;;1.74;95.63;100277.86;106044;1257;71574;-72
2023/04/14 03:33:10;;;;;;;21.30;10.40;;;;;;;1.71;95.41;100277.23;105954;1258;61997;-71
2023/04/14 03:35:39;;;;;;;18.10;10.00;;;;;;;1.67;95.28;100281.53;106762;1254;62453;-71
2023/04/14 03:38:09;;;;;;;18.90;11.00;;;;;;;1.65;95.77;100282.59;106033;1257;75226;-70
2023/04/14 03:40:40;;;;;;;20.60;10.90;;;;;;;1.63;95.85;100281.66;105802;1254;71011;-69
2023/04/14 03:43:12;;;;;;;19.50;10.40;;;;;;;1.62;96.02;100284.17;105713;1256;73016;-71
2023/04/14 03:45:39;;;;;;;20.60;10.30;;;;;;;1.61;95.95;100286.23;106611;1254;62216;-72
2023/04/14 03:48:11;;;;;;;15.40;10.20;;;;;;;1.59;95.95;100284.95;105821;1259;62026;-69
2023/04/14 03:50:41;;;;;;;17.10;10.10;;;;;;;1.57;95.84;100284.13;106149;1254;74633;-73
2023/04/14 03:53:13;;;;;;;17.70;9.90;;;;;;;1.55;95.89;100280.30;105941;1259;70615;-69
2023/04/14 03:55:43;;;;;;;19.20;10.30;;;;;;;1.52;95.92;100279.31;105852;1254;71522;-69
2023/04/14 03:58:12;;;;;;;17.00;9.60;;;;;;;1.49;95.83;100279.06;105568;1257;62153;-68
2023/04/14 04:00:40;;;;;;;16.30;10.20;;;;;;;1.48;95.86;100283.67;106158;1254;62117;-72
2023/04/14 04:03:09;;;;;;;17.50;9.50;;;;;;;1.46;96.14;100283.32;106211;1256;75235;-69
2023/04/14 04:05:39;;;;;;;16.40;10.10;;;;;;;1.44;96.10;100285.74;106200;1254;69214;-70
2023/04/14 04:08:08;;;;;;;18.70;10.60;;;;;;;1.42;96.27;100285.38;105848;1260;72807;-71
2023/04/14 04:10:37;;;;;;;19.90;11.40;;;;;;;1.40;96.31;100288.63;106377;1254;62182;-69
2023/04/14 04:13:11;;;;;;;19.30;11.20;;;;;;;1.38;96.52;100290.70;106320;1255;62051;-72
2023/04/14 04:15:41;;;;;;;19.60;11.20;;;;;;;1.36;96.47;100289.29;106182;1254;74730;-71
2023/04/14 04:18:09;;;;;;;17.50;11.10;;;;;;;1.34;96.47;100293.89;105746;1254;71302;-69
2023/04/14 04:20:39;;;;;;;19.60;10.50;;;;;;;1.29;96.44;100292.20;105938;1254;71465;-72
2023/04/14 04:23:08;;;;;;;18.00;10.60;;;;;;;1.26;96.30;100296.24;106098;1254;62619;-69
2023/04/14 04:25:37;;;;;;;21.50;11.30;;;;;;;1.24;96.27;100297.14;106967;1256;62585;-71
2023/04/14 04:28:04;;;;;;;19.70;11.30;;;;;;;1.21;96.55;100294.36;107134;1254;75310;-70
2023/04/14 04:30:32;;;;;;;18.00;11.10;;;;;;;1.19;96.65;100295.72;106079;1260;69968;-70
2023/04/14 04:33:02;;;;;;;19.20;10.90;;;;;;;1.18;96.72;100298.63;106381;1257;72448;-68
2023/04/14 04:35:31;;;;;;;19.60;11.30;;;;;;;1.17;97.17;100298.14;105683;1254;62625;-69
2023/04/14 04:38:00;;;;;;;20.90;11.40;;;;;;;1.18;97.27;100300.74;106062;1255;62186;-72
2023/04/14 04:40:26;;;;;;;25.40;11.80;;;;;;;1.17;97.52;100300.22;106246;1259;73939;-68
2023/04/14 04:42:53;;;;;;;23.50;11.70;;;;;;;1.20;97.87;100301.95;106747;1254;71379;-71
2023/04/14 04:45:45;;;;;;;21.20;11.70;;;;;;;1.23;98.16;100300.36;107733;1254;71139;-69
2023/04/14 04:48:12;;;;;;;18.90;11.70;;;;;;;1.26;97.98;100303.45;109096;1254;59949;-70
2023/04/14 04:50:40;;;;;;;22.20;11.60;;;;;;;1.28;98.29;100306.85;108371;1258;62162;-70
2023/04/14 04:53:07;;;;;;;19.90;12.00;;;;;;;1.34;98.39;100306.43;106371;1255;74245;-71
2023/04/14 04:55:33;;;;;;;20.70;11.50;;;;;;;1.39;98.46;100304.58;105940;1254;62533;-71
2023/04/14 04:58:00;;;;;;;20.30;11.20;;;;;;;1.44;98.26;100304.91;105884;1257;62361;-69
2023/04/14 05:00:27;;;;;;;22.80;11.50;;;;;;;1.48;98.27;100309.27;108993;1253;59659;-67
2023/04/14 05:02:53;;;;;;;21.50;11.20;;;;;;;1.53;98.39;100312.34;107374;1254;62036;-68
2023/04/14 05:05:20;;;;;;;19.10;11.00;;;;;;;1.58;98.35;100315.91;106071;1257;75124;-69
2023/04/14 05:07:47;;;;;;;21.40;11.30;;;;;;;1.64;98.42;100317.15;106687;1258;70432;-72
2023/04/14 05:10:14;;;;;;;20.70;11.90;;;;;;;1.69;98.49;100319.56;105836;1256;72783;-69
2023/04/14 05:12:40;;;;;;;20.30;11.50;;;;;;;1.73;98.49;100316.06;105836;1256;62140;-70
2023/04/14 05:15:08;;;;;;;20.90;11.60;;;;;;;1.77;98.44;100319.06;105945;1256;62530;-70
2023/04/14 05:17:35;;;;;;;21.70;11.60;;;;;;;1.81;98.65;100325.04;106725;1254;75591;-70
2023/04/14 05:20:04;;;;;;;18.10;11.40;;;;;;;1.86;98.71;100325.65;106521;1255;70059;-68
2023/04/14 05:22:31;;;;;;;20.70;12.00;;;;;;;1.91;98.69;100327.83;106103;1258;72716;-68
2023/04/14 05:24:58;;;;;;;24.00;12.80;;;;;;;1.97;99.08;100329.60;105893;1257;62125;-69
2023/04/14 05:27:25;;;;;;;23.50;12.00;;;;;;;2.04;99.01;100329.91;105851;1254;62389;-69
2023/04/14 05:29:51;;;;;;;22.20;12.30;;;;;;;2.10;98.81;100326.43;106006;1257;62074;-68
2023/04/14 05:32:19;;;;;;;21.70;11.80;;;;;;;2.16;99.06;100320.70;105887;1257;71308;-69
2023/04/14 05:34:46;;;;;;;22.30;12.30;;;;;;;2.23;99.06;100316.08;105597;1257;72426;-73
2023/04/14 05:37:13;;;;;;;22.70;12.30;;;;;;;2.31;99.32;100319.92;106483;1257;249887;-69
2023/04/14 05:39:40;;;;;;;24.20;12.20;;;;;;;2.38;98.86;100322.86;107180;1254;62143;-68
2023/04/14 05:42:06;;;;;;;23.50;12.20;;;;;;;2.44;98.62;100325.48;106431;1254;74787;-69
2023/04/14 05:44:33;;;;;;;20.00;12.60;;;;;;;2.50;98.59;100324.44;106081;1255;69643;-68
2023/04/14 05:47:00;;;;;;;24.30;13.00;;;;;;;2.59;98.86;100327.14;106377;1257;72433;-71
2023/04/14 05:49:26;;;;;;;27.40;13.60;;;;;;;2.70;98.77;100323.25;106343;1254;62146;-69
2023/04/14 05:51:54;;;;;;;24.80;13.30;;;;;;;2.79;98.78;100321.07;105757;1257;62053;-68
2023/04/14 05:54:21;;;;;;;23.90;13.30;;;;;;;2.90;99.01;100320.81;106079;1254;75332;-69
2023/04/14 05:56:48;;;;;;;25.80;13.60;;;;;;;3.04;99.29;100323.82;106454;1254;62602;-74
2023/04/14 05:59:15;;;;;;;24.30;14.20;;;;;;;3.16;99.35;100321.80;105971;1257;62040;-68
2023/04/14 06:01:42;;;;;;;26.00;13.60;;;;;;;3.33;99.40;100318.59;106284;1254;63333;-69
2023/04/14 06:04:09;;;;;;;23.00;13.70;;;;;;;3.49;99.28;100322.36;105778;1255;62526;-71
2023/04/14 06:06:37;;;;;;;21.60;13.00;;;;;;;3.64;99.08;100319.66;105747;1257;74251;-69
2023/04/14 06:09:03;;;;;;;27.00;13.90;;;;;;;3.78;98.78;100314.67;105919;1254;71090;-72
2023/04/14 06:11:30;;;;;;;29.50;13.90;;;;;;;3.94;98.62;100312.91;105756;1255;62174;-69
2023/04/14 06:13:57;;;;;;;23.00;13.20;;;;;;;4.06;98.12;100314.18;106631;1255;62109;-71
2023/04/14 06:16:24;;;;;;;25.90;14.10;;;;;;;4.15;97.76;100311.12;105937;1253;62122;-72
2023/04/14 06:18:51;;;;;;;29.80;14.10;;;;;;;4.24;97.22;100309.75;105841;1257;73924;-69
2023/04/14 06:21:17;;;;;;;19.10;12.50;;;;;;;4.28;96.30;100312.55;105741;1254;62201;-69
2023/04/14 06:23:44;;;;;;;25.20;12.30;;;;;;;4.33;96.10;100309.27;106334;1254;62423;-68
2023/04/14 06:26:11;;;;;;;21.00;13.30;;;;;;;4.42;96.22;100309.09;105764;1254;62174;-70
2023/04/14 06:28:38;;;;;;;26.60;13.40;;;;;;;4.53;96.38;100310.53;105833;1257;62150;-69
2023/04/14 06:31:06;;;;;;;21.60;13.20;;;;;;;4.61;96.11;100314.81;106205;1255;74870;-73
2023/04/14 06:33:33;;;;;;;20.90;12.70;;;;;;;4.75;96.45;100311.98;106418;1253;63089;-70
2023/04/14 06:36:00;;;;;;;20.70;13.20;;;;;;;4.92;96.87;100312.42;105868;1254;62188;-70
2023/04/14 06:38:27;;;;;;;23.50;12.80;;;;;;;5.08;96.65;100316.31;105638;1254;62099;-71
2023/04/14 06:40:53;;;;;;;20.30;12.60;;;;;;;5.23;96.42;100319.39;105733;1254;62028;-73
2023/04/14 06:43:20;;;;;;;24.70;12.90;;;;;;;5.38;96.38;100320.13;105996;1258;62064;-69
2023/04/14 06:45:46;;;;;;;22.60;12.90;;;;;;;5.51;96.36;100319.98;105759;1254;62176;-72
2023/04/14 06:48:14;;;;;;;19.90;12.50;;;;;;;5.68;96.69;100316.57;106191;1254;62080;-71
2023/04/14 06:50:41;;;;;;;20.60;12.40;;;;;;;5.87;96.51;100310.47;105793;1254;62535;-72
2023/04/14 06:53:09;;;;;;;19.00;11.80;;;;;;;6.08;96.41;100312.84;107674;1253;62026;-68
2023/04/14 06:55:40;;;;;;;19.20;11.60;;;;;;;6.29;96.29;100308.61;107957;1253;75110;-68
2023/04/14 06:58:06;;;;;;;19.40;11.00;;;;;;;6.48;95.34;100303.98;107610;1253;70152;-67
2023/04/14 07:00:33;;;;;;;18.10;10.60;;;;;;;6.69;95.49;100302.06;107679;1255;71441;-68
2023/04/14 07:03:00;;;;;;;16.60;10.80;;;;;;;6.90;94.98;100297.55;106765;1257;62101;-68
2023/04/14 07:05:27;;;;;;;16.50;10.50;;;;;;;7.12;94.57;100295.43;105760;1254;61899;-68
2023/04/14 07:07:53;;;;;;;17.50;9.80;;;;;;;7.32;94.08;100293.09;106697;1253;76239;-70
2023/04/14 07:10:20;;;;;;;12.00;8.40;;;;;;;7.53;93.00;100297.25;106312;1254;62137;-69
2023/04/14 07:12:46;;;;;;;17.00;9.10;;;;;;;7.68;92.05;100296.65;106238;1253;62305;-69
2023/04/14 07:15:13;;;;;;;12.50;7.60;;;;;;;7.85;91.11;100299.56;106115;1257;62158;-68
2023/04/14 07:17:39;;;;;;;17.10;8.20;;;;;;;8.00;90.52;100298.80;106819;1255;62121;-72
2023/04/14 07:20:06;;;;;;;12.00;7.50;;;;;;;8.19;90.05;100300.15;105958;1258;62101;-67
2023/04/14 07:22:33;;;;;;;13.70;7.30;;;;;;;8.35;89.17;100297.77;105784;1255;69284;-70
2023/04/14 07:24:59;;;;;;;11.90;7.50;;;;;;;8.52;88.48;100298.42;105964;1255;62127;-67
2023/04/14 07:27:27;;;;;;;14.10;8.00;;;;;;;8.69;87.61;100301.27;106658;1254;62076;-69
2023/04/14 07:29:54;;;;;;;15.50;8.70;;;;;;;8.85;87.71;100303.93;105874;1254;62161;-69
2023/04/14 07:32:20;;;;;;;19.80;8.60;;;;;;;9.02;87.47;100300.77;105749;1255;62331;-70
2023/04/14 07:34:47;;;;;;;18.10;8.80;;;;;;;9.19;87.35;100299.14;105902;1253;70290;-71
2023/04/14 07:37:15;;;;;;;17.30;8.30;;;;;;;9.33;86.68;100297.72;105798;1256;62059;-69
2023/04/14 07:39:41;;;;;;;17.90;8.20;;;;;;;9.45;85.79;100298.12;105784;1254;62687;-68
2023/04/14 07:42:08;;;;;;;18.30;8.50;;;;;;;9.57;84.91;100305.41;105946;1255;63365;-69
2023/04/14 07:44:34;;;;;;;22.40;8.70;;;;;;;9.65;84.25;100306.72;106687;1255;60676;-69
2023/04/14 07:47:01;;;;;;;20.10;9.30;;;;;;;9.76;84.06;100308.85;106654;1254;63298;-69
2023/04/14 07:49:27;;;;;;;21.90;8.90;;;;;;;9.87;83.62;100310.06;106001;1256;62118;-69
2023/04/14 07:51:55;;;;;;;13.60;6.30;;;;;;;9.96;82.49;100316.03;106034;1255;61908;-68
2023/04/14 07:54:22;;;;;;;14.00;6.40;;;;;;;9.93;79.59;100319.49;106085;1254;62140;-68
2023/04/14 07:56:49;;;;;;;13.00;6.00;;;;;;;9.95;79.72;100322.83;105889;1255;75469;-72
2023/04/14 07:59:15;;;;;;;9.90;5.20;;;;;;;10.02;80.14;100317.92;105910;1256;70634;-68
2023/04/14 08:01:42;;;;;;;9.10;5.50;;;;;;;10.14;80.11;100314.42;106229;1255;71177;-71
2023/04/14 08:04:09;;;;;;;10.40;5.50;;;;;;;10.21;78.62;100323.17;106011;1255;62022;-66
2023/04/14 08:06:36;;;;;;;10.80;5.30;;;;;;;10.23;78.35;100323.45;106313;1255;62042;-67
2023/04/14 08:09:03;;;;;;;9.10;5.20;;;;;;;10.26;78.14;100323.65;105691;1255;62468;-69
2023/04/14 08:11:29;;;;;;;10.40;5.50;;;;;;;10.32;78.41;100322.68;105958;1254;69753;-69
2023/04/14 08:13:56;;;;;;;8.60;5.30;;;;;;;10.43;78.32;100323.40;105746;1257;62046;-68
2023/04/14 08:16:23;;;;;;;8.30;5.00;;;;;;;10.54;77.86;100316.41;105865;1255;62890;-67
2023/04/14 08:18:50;;;;;;;10.00;5.60;;;;;;;10.64;77.90;100312.64;106303;1255;62071;-71
2023/04/14 08:21:17;;;;;;;9.60;5.80;;;;;;;10.72;77.25;100309.86;105993;1257;62054;-68
2023/04/14 08:23:43;;;;;;;9.30;5.30;;;;;;;10.79;76.71;100311.98;106280;1257;62095;-68
2023/04/14 08:26:10;;;;;;;9.40;4.90;;;;;;;10.91;76.83;100307.91;108249;1253;62145;-69
2023/04/14 08:28:36;;;;;;;7.60;4.80;;;;;;;11.08;76.84;100300.91;105503;1254;62149;-67
2023/04/14 08:31:03;;;;;;;6.90;4.40;;;;;;;11.27;76.38;100303.13;105722;1257;61914;-69
2023/04/14 08:33:30;;;;;;;7.60;3.90;;;;;;;11.44;74.87;100299.13;105705;1254;62134;-67
2023/04/14 08:35:56;;;;;;;8.30;3.90;;;;;;;11.60;74.50;100300.44;106408;1256;62042;-69
2023/04/14 08:38:26;;;;;;;5.60;3.40;;;;;;;11.78;73.66;100300.60;105750;1256;74405;-68
2023/04/14 08:40:55;;;;;;;5.00;2.40;;;;;;;11.93;72.29;100300.53;105682;1257;62126;-67
2023/04/14 08:43:22;;;;;;;6.60;2.60;;;;;;;12.06;70.91;100302.75;106389;1254;63662;-68
2023/04/14 08:45:52;;;;;;;4.50;2.30;;;;;;;12.04;68.35;100312.19;105697;1256;74247;-71
2023/04/14 08:48:20;;;;;;;5.60;2.60;;;;;;;12.04;68.89;100311.37;106016;1254;70199;-69
2023/04/14 08:51:06;;;;;;;5.90;2.90;;;;;;;12.06;69.29;100314.16;105993;1254;73548;-72
2023/04/14 08:53:34;;;;;;;4.60;2.70;;;;;;;12.14;69.16;100314.67;106299;1254;62090;-71
2023/04/14 08:56:03;;;;;;;5.30;2.50;;;;;;;12.20;68.91;100316.88;105699;1255;62442;-72
2023/04/14 08:58:30;;;;;;;7.30;2.80;;;;;;;12.31;68.93;100317.48;105884;1255;75663;-71
2023/04/14 09:00:58;;;;;;;5.80;2.70;;;;;;;12.43;68.36;100315.79;105838;1254;71393;-74
2023/04/14 09:03:24;;;;;;;6.20;2.70;;;;;;;12.48;66.97;100316.17;106262;1255;70193;-70
2023/04/14 09:05:52;;;;;;;6.00;2.80;;;;;;;12.54;67.08;100316.70;105695;1254;62137;-70
2023/04/14 09:08:19;;;;;;;8.80;3.00;;;;;;;12.60;67.20;100319.66;105567;1254;62022;-70
2023/04/14 09:10:46;;;;;;;6.40;3.40;;;;;;;12.79;67.65;100321.30;106046;1253;77611;-67
2023/04/14 09:13:15;;;;;;;4.90;2.70;;;;;;;12.95;66.88;100322.55;106122;1255;70527;-70
2023/04/14 09:15:42;;;;;;;4.60;2.20;;;;;;;13.02;64.88;100321.45;106005;1257;71086;-69
2023/04/14 09:18:10;;;;;;;5.10;2.60;;;;;;;13.09;65.20;100320.73;105851;1254;62174;-73
2023/04/14 09:20:38;;;;;;;4.90;2.70;;;;;;;13.28;64.59;100317.26;106320;1254;62253;-69
2023/04/14 09:23:08;;;;;;;4.00;2.10;;;;;;;13.48;63.94;100319.94;106219;1256;75282;-70
2023/04/14 09:25:38;;;;;;;4.30;2.20;;;;;;;13.60;62.81;100315.48;105990;1257;69748;-69
2023/04/14 09:28:05;;;;;;;6.50;2.60;;;;;;;13.64;60.88;100310.48;106238;1254;72751;-70
2023/04/14 09:30:32;;;;;;;6.10;2.00;;;;;;;13.72;61.80;100312.90;105669;1256;62590;-71
2023/04/14 09:33:03;;;;;;;4.30;2.10;;;;;;;13.92;61.98;100305.39;105837;1254;61987;-71
2023/04/14 09:35:47;;;;;;;3.70;2.10;;;;;;;14.02;59.68;100299.17;105738;1256;74284;-69
2023/04/14 09:38:29;;;;;;;4.50;2.00;;;;;;;13.99;58.33;100292.55;106151;1254;71028;-67
2023/04/14 09:40:56;;;;;;;3.90;2.40;;;;;;;14.07;59.65;100286.20;106000;1256;71586;-70
2023/04/14 09:43:24;;;;;;;4.80;2.40;;;;;;;14.24;59.66;100286.95;105916;1257;63103;-68
2023/04/14 09:45:52;;;;;;;5.50;1.90;;;;;;;14.40;58.62;100287.85;107001;1255;60646;-70
2023/04/14 09:48:20;;;;;;;3.80;2.00;;;;;;;14.48;57.22;100281.70;106535;1254;73994;-70
2023/04/14 09:51:10;;;;;;;3.80;2.20;;;;;;;14.64;57.43;100275.16;106478;1254;69630;-68
2023/04/14 09:53:41;;;;;;;5.20;2.00;;;;;;;14.80;56.86;100273.06;105773;1255;71504;-70
2023/04/14 09:56:10;;;;;;;3.40;1.70;;;;;;;14.93;55.19;100274.31;106676;1254;62050;-70
2023/04/14 09:58:41;;;;;;;4.70;1.70;;;;;;;15.00;54.25;100272.80;105941;1253;62038;-70
2023/04/14 10:01:18;;;;;;;3.80;1.70;;;;;;;15.00;52.49;100272.47;106605;1256;74012;-69
2023/04/14 10:03:49;;;;;;;4.90;2.10;;;;;;;15.00;52.07;100268.52;105754;1253;70019;-72
2023/04/14 10:06:21;;;;;;;3.70;1.90;;;;;;;14.98;51.99;100269.08;105913;1257;71583;-70
2023/04/14 10:08:52;;;;;;;2.50;1.80;;;;;;;15.03;52.20;100265.58;106073;1257;63333;-72
2023/04/14 10:11:34;;;;;;;4.10;1.80;;;;;;;14.94;52.36;100265.52;108172;1255;59802;-71
2023/04/14 10:14:05;;;;;;;3.50;1.90;;;;;;;15.18;53.08;100265.70;105998;1255;76006;-70
2023/04/14 10:16:32;;;;;;;3.40;1.70;;;;;;;15.34;52.28;100265.18;106273;1257;70034;-70
2023/04/14 10:19:00;;;;;;;3.50;1.80;;;;;;;15.57;52.16;100263.35;105563;1253;72823;-70
2023/04/14 10:21:27;;;;;;;4.30;2.00;;;;;;;15.85;51.21;100267.10;106224;1253;62497;-70
2023/04/14 10:23:56;;;;;;;4.80;2.20;;;;;;;16.08;51.27;100262.21;105577;1259;62049;-70
2023/04/14 10:26:23;;;;;;;4.40;1.80;;;;;;;16.39;50.29;100264.96;106155;1254;75393;-69
2023/04/14 10:28:52;;;;;;;5.30;1.90;;;;;;;16.72;49.69;100257.68;105848;1258;70887;-71
2023/04/14 10:31:30;;;;;;;2.90;1.80;;;;;;;17.00;48.78;100257.81;106130;1256;71518;-71
2023/04/14 10:33:57;;;;;;;4.70;2.10;;;;;;;17.28;48.22;100249.84;105814;1256;62076;-71
2023/04/14 10:36:26;;;;;;;3.80;1.90;;;;;;;17.42;46.18;100254.30;105676;1255;61967;-72
2023/04/14 10:39:01;;;;;;;3.90;2.00;;;;;;;17.43;45.95;100252.56;106262;1255;74149;-70
2023/04/14 10:41:50;;;;;;;2.90;1.80;;;;;;;17.54;45.38;100251.02;105496;1255;70656;-73
2023/04/14 10:44:23;;;;;;;4.20;1.90;;;;;;;17.45;44.20;100253.48;105490;1257;74449;-74
2023/04/14 10:46:51;;;;;;;3.60;1.70;;;;;;;17.49;44.36;100247.14;105905;1254;62059;-75
2023/04/14 10:49:18;;;;;;;3.70;1.60;;;;;;;17.67;44.81;100244.39;106321;1254;62159;-73
2023/04/14 10:51:46;;;;;;;2.60;1.70;;;;;;;17.78;44.23;100241.42;106082;1254;74312;-73
2023/04/14 10:54:18;;;;;;;4.50;1.60;;;;;;;17.76;43.20;100241.27;106296;1254;71295;-76
2023/04/14 10:57:09;;;;;;;4.30;1.80;;;;;;;17.97;44.14;100241.30;105999;1254;72685;-74
2023/04/14 10:59:40;;;;;;;3.10;1.70;;;;;;;18.17;42.63;100237.26;105839;1255;62052;-73
2023/04/14 11:02:29;;;;;;;3.70;1.80;;;;;;;18.23;43.02;100233.30;105974;1254;62250;-72
2023/04/14 11:05:04;;;;;;;3.40;1.90;;;;;;;18.33;43.74;100231.31;105995;1253;75579;-74
2023/04/14 11:07:39;;;;;;;4.70;2.10;;;;;;;18.50;43.07;100220.48;106871;1255;69528;-72
2023/04/14 11:10:18;;;;;;;4.90;2.00;;;;;;;18.68;42.24;100210.83;105899;1260;71125;-75
2023/04/14 11:12:46;;;;;;;3.60;1.90;;;;;;;18.85;41.80;100211.70;106155;1255;62060;-74
2023/04/14 11:15:16;;;;;;;3.20;1.90;;;;;;;18.98;40.74;100214.02;106325;1253;62386;-73
2023/04/14 11:17:46;;;;;;;3.20;1.80;;;;;;;19.01;40.08;100209.88;105886;1255;76265;-74
2023/04/14 11:20:18;;;;;;;4.40;2.10;;;;;;;18.92;40.14;100210.75;105646;1256;71181;-76
2023/04/14 11:22:47;;;;;;;3.40;1.80;;;;;;;18.81;39.98;100214.61;108016;1255;71315;-71
2023/04/14 11:25:16;;;;;;;3.80;1.70;;;;;;;18.67;40.23;100210.59;108978;1253;59825;-72